createdAt,value
2023-04-23T00:00:43.326Z,0
2023-04-23T00:01:59.464Z,0
2023-04-23T00:03:15.592Z,0
2023-04-23T00:04:31.739Z,0
2023-04-23T00:05:47.862Z,0
2023-04-23T00:07:04.010Z,0
2023-04-23T00:08:20.143Z,0
2023-04-23T00:09:36.271Z,0
2023-04-23T00:10:52.414Z,0
2023-04-23T00:12:08.549Z,0
2023-04-23T00:13:24.755Z,0
2023-04-23T00:14:40.006Z,0
2023-04-23T00:15:56.190Z,0
2023-04-23T00:17:11.414Z,0
2023-04-23T00:18:27.550Z,0
2023-04-23T00:19:43.667Z,0
2023-04-23T00:20:59.804Z,0
2023-04-23T00:22:15.947Z,0
2023-04-23T00:23:32.078Z,0
2023-04-23T00:24:48.343Z,0
2023-04-23T00:26:04.468Z,0
2023-04-23T00:27:20.609Z,0
2023-04-23T00:28:36.751Z,0
2023-04-23T00:29:52.893Z,0
2023-04-23T00:31:09.025Z,0
2023-04-23T00:32:25.149Z,0
2023-04-23T00:33:41.298Z,0
2023-04-23T00:34:57.413Z,0
2023-04-23T00:36:13.577Z,0
2023-04-23T00:37:29.712Z,0
2023-04-23T00:38:45.838Z,0
2023-04-23T00:40:01.970Z,0
2023-04-23T00:41:18.112Z,0
2023-04-23T00:42:34.242Z,0
2023-04-23T00:43:50.382Z,0
2023-04-23T00:45:06.523Z,0
2023-04-23T00:46:22.652Z,0
2023-04-23T00:47:38.774Z,0
2023-04-23T00:48:54.922Z,0
2023-04-23T00:50:11.064Z,0
2023-04-23T00:51:27.196Z,0
2023-04-23T00:52:43.324Z,0
2023-04-23T00:53:59.458Z,0
2023-04-23T00:55:15.619Z,0
2023-04-23T00:56:31.739Z,0
2023-04-23T00:57:47.882Z,0
2023-04-23T00:59:04.019Z,0
2023-04-23T01:00:20.151Z,0
2023-04-23T01:01:36.286Z,0
2023-04-23T01:02:52.423Z,0
2023-04-23T01:04:08.562Z,0
2023-04-23T01:05:24.697Z,0
2023-04-23T01:06:40.833Z,0
2023-04-23T01:07:56.975Z,0
2023-04-23T01:09:13.105Z,0
2023-04-23T01:10:29.235Z,0
2023-04-23T01:11:45.435Z,0
2023-04-23T01:13:00.660Z,0
2023-04-23T01:14:15.882Z,0
2023-04-23T01:15:31.036Z,0
2023-04-23T01:16:47.182Z,0
2023-04-23T01:18:03.310Z,0
2023-04-23T01:19:19.435Z,0
2023-04-23T01:20:35.575Z,0
2023-04-23T01:21:51.713Z,0
2023-04-23T01:23:07.862Z,0
2023-04-23T01:24:23.987Z,0
2023-04-23T01:25:40.119Z,0
2023-04-23T01:26:56.245Z,0
2023-04-23T01:28:12.388Z,0
2023-04-23T01:29:28.533Z,0
2023-04-23T01:30:44.660Z,0
2023-04-23T01:32:00.799Z,0
2023-04-23T01:33:16.937Z,0
2023-04-23T01:34:33.074Z,0
2023-04-23T01:35:49.219Z,0
2023-04-23T01:37:05.351Z,0
2023-04-23T01:38:21.478Z,0
2023-04-23T01:39:37.609Z,0
2023-04-23T01:40:53.749Z,0
2023-04-23T01:42:09.902Z,0
2023-04-23T01:43:26.027Z,0
2023-04-23T01:44:42.154Z,0
2023-04-23T01:45:58.291Z,0
2023-04-23T01:47:14.416Z,0
2023-04-23T01:48:30.574Z,0
2023-04-23T01:49:46.703Z,0
2023-04-23T01:51:02.833Z,0
2023-04-23T01:52:18.966Z,0
2023-04-23T01:53:35.105Z,0
2023-04-23T01:54:51.261Z,0
2023-04-23T01:56:07.386Z,0
2023-04-23T01:57:23.511Z,0
2023-04-23T01:58:39.657Z,0
2023-04-23T01:59:55.775Z,0
2023-04-23T02:01:11.929Z,0
2023-04-23T02:02:28.128Z,0
2023-04-23T02:03:43.357Z,0
2023-04-23T02:04:58.574Z,0
2023-04-23T02:06:14.702Z,0
2023-04-23T02:07:30.846Z,0
2023-04-23T02:08:46.968Z,0
2023-04-23T02:10:03.096Z,0
2023-04-23T02:11:19.251Z,0
2023-04-23T02:12:35.376Z,0
2023-04-23T02:13:51.515Z,0
2023-04-23T02:15:07.642Z,0
2023-04-23T02:16:23.777Z,0
2023-04-23T02:17:39.940Z,0
2023-04-23T02:18:56.065Z,0
2023-04-23T02:20:12.195Z,0
2023-04-23T02:21:28.327Z,0
2023-04-23T02:22:44.464Z,0
2023-04-23T02:24:00.613Z,0
2023-04-23T02:25:16.734Z,0
2023-04-23T02:26:32.868Z,0
2023-04-23T02:27:49.011Z,0
2023-04-23T02:29:05.149Z,0
2023-04-23T02:30:21.296Z,0
2023-04-23T02:31:37.415Z,0
2023-04-23T02:32:53.565Z,0
2023-04-23T02:34:09.684Z,0
2023-04-23T02:35:25.817Z,0
2023-04-23T02:36:42.029Z,0
2023-04-23T02:37:57.265Z,0
2023-04-23T02:39:12.477Z,0
2023-04-23T02:40:28.610Z,0
2023-04-23T02:41:44.750Z,0
2023-04-23T02:43:00.879Z,0
2023-04-23T02:44:17.009Z,0
2023-04-23T02:45:33.141Z,0
2023-04-23T02:46:49.291Z,0
2023-04-23T02:48:05.427Z,0
2023-04-23T02:49:21.559Z,0
2023-04-23T02:50:37.704Z,0
2023-04-23T02:51:53.836Z,0
2023-04-23T02:53:09.972Z,0
2023-04-23T02:54:26.103Z,0
2023-04-23T02:55:42.244Z,0
2023-04-23T02:56:58.382Z,0
2023-04-23T02:58:14.508Z,0
2023-04-23T02:59:30.662Z,0
2023-04-23T03:00:46.791Z,0
2023-04-23T03:02:02.932Z,0
2023-04-23T03:03:19.049Z,0
2023-04-23T03:04:35.183Z,0
2023-04-23T03:05:51.342Z,0
2023-04-23T03:07:07.470Z,0
2023-04-23T03:08:23.607Z,0
2023-04-23T03:09:39.731Z,0
2023-04-23T03:10:55.950Z,0
2023-04-23T03:12:11.159Z,0
2023-04-23T03:13:26.369Z,0
2023-04-23T03:14:41.515Z,0
2023-04-23T03:15:57.650Z,0
2023-04-23T03:18:29.920Z,0
2023-04-23T03:19:46.051Z,0
2023-04-23T03:21:02.199Z,0
2023-04-23T03:22:18.331Z,0
2023-04-23T03:23:34.465Z,0
2023-04-23T03:24:50.610Z,0
2023-04-23T03:26:06.734Z,0
2023-04-23T03:27:22.891Z,0
2023-04-23T03:28:39.010Z,0
2023-04-23T03:29:55.155Z,0
2023-04-23T03:31:11.289Z,0
2023-04-23T03:32:27.418Z,0
2023-04-23T03:33:43.561Z,0
2023-04-23T03:34:59.702Z,0
2023-04-23T03:36:15.832Z,0
2023-04-23T03:37:31.958Z,0
2023-04-23T03:38:48.092Z,0
2023-04-23T03:40:04.235Z,0
2023-04-23T03:41:20.385Z,0
2023-04-23T03:42:36.503Z,0
2023-04-23T03:43:52.641Z,0
2023-04-23T03:45:08.785Z,4
2023-04-23T03:46:24.931Z,4
2023-04-23T03:47:41.065Z,0
2023-04-23T03:48:57.183Z,4
2023-04-23T03:50:13.316Z,4
2023-04-23T03:51:29.446Z,4
2023-04-23T03:52:45.603Z,4
2023-04-23T03:54:01.740Z,8
2023-04-23T03:55:17.863Z,8
2023-04-23T03:56:34.029Z,8
2023-04-23T03:57:50.137Z,8
2023-04-23T03:59:06.275Z,8
2023-04-23T04:00:22.419Z,4
2023-04-23T04:01:38.606Z,8
2023-04-23T04:02:53.855Z,8
2023-04-23T04:04:09.060Z,4
2023-04-23T04:05:25.182Z,8
2023-04-23T04:06:41.327Z,8
2023-04-23T04:07:57.463Z,12
2023-04-23T04:09:13.603Z,12
2023-04-23T04:10:29.746Z,16
2023-04-23T04:11:45.872Z,16
2023-04-23T04:13:01.995Z,20
2023-04-23T04:14:18.140Z,24
2023-04-23T04:15:34.280Z,24
2023-04-23T04:16:50.416Z,32
2023-04-23T04:18:06.560Z,32
2023-04-23T04:19:22.681Z,40
2023-04-23T04:20:38.816Z,44
2023-04-23T04:21:54.966Z,44
2023-04-23T04:23:11.095Z,48
2023-04-23T04:24:27.233Z,48
2023-04-23T04:25:43.364Z,52
2023-04-23T04:26:59.503Z,56
2023-04-23T04:28:15.636Z,60
2023-04-23T04:29:31.777Z,64
2023-04-23T04:30:47.914Z,68
2023-04-23T04:32:04.049Z,80
2023-04-23T04:33:20.170Z,100
2023-04-23T04:34:36.328Z,104
2023-04-23T04:35:52.519Z,104
2023-04-23T04:37:07.785Z,116
2023-04-23T04:38:22.989Z,140
2023-04-23T04:39:39.126Z,168
2023-04-23T04:40:55.243Z,172
2023-04-23T04:42:11.394Z,156
2023-04-23T04:43:27.641Z,140
2023-04-23T04:44:43.783Z,140
2023-04-23T04:45:59.917Z,132
2023-04-23T04:47:16.055Z,120
2023-04-23T04:48:32.186Z,108
2023-04-23T04:49:48.314Z,108
2023-04-23T04:51:04.472Z,124
2023-04-23T04:52:20.610Z,140
2023-04-23T04:53:36.734Z,140
2023-04-23T04:54:52.869Z,136
2023-04-23T04:56:09.000Z,136
2023-04-23T04:57:25.160Z,140
2023-04-23T04:58:41.279Z,156
2023-04-23T04:59:57.423Z,188
2023-04-23T05:01:13.547Z,228
2023-04-23T05:02:29.676Z,240
2023-04-23T05:03:45.831Z,228
2023-04-23T05:05:02.119Z,232
2023-04-23T05:06:18.243Z,260
2023-04-23T05:11:22.932Z,512
2023-04-23T05:12:39.055Z,552
2023-04-23T05:13:55.186Z,584
2023-04-23T05:15:11.313Z,568
2023-04-23T05:16:27.468Z,352
2023-04-23T05:17:43.595Z,292
2023-04-23T05:18:59.737Z,440
2023-04-23T05:20:15.861Z,444
2023-04-23T05:21:32.007Z,320
2023-04-23T05:22:48.144Z,524
2023-04-23T05:24:04.289Z,556
2023-04-23T05:25:20.419Z,828
2023-04-23T05:26:36.556Z,944
2023-04-23T05:27:52.685Z,1040
2023-04-23T05:29:08.828Z,1044
2023-04-23T05:30:24.966Z,872
2023-04-23T05:31:41.094Z,696
2023-04-23T05:32:57.238Z,720
2023-04-23T05:34:13.374Z,572
2023-04-23T05:35:29.510Z,664
2023-04-23T05:36:45.704Z,704
2023-04-23T05:38:00.906Z,528
2023-04-23T05:39:17.044Z,504
2023-04-23T05:40:33.192Z,540
2023-04-23T05:41:49.327Z,668
2023-04-23T05:43:05.450Z,732
2023-04-23T05:44:21.586Z,680
2023-04-23T05:45:37.724Z,632
2023-04-23T05:46:53.875Z,616
2023-04-23T05:48:10.012Z,576
2023-04-23T05:50:42.283Z,652
2023-04-23T05:51:58.403Z,708
2023-04-23T05:53:14.558Z,824
2023-04-23T05:54:30.681Z,892
2023-04-23T05:55:46.817Z,812
2023-04-23T05:57:02.947Z,836
2023-04-23T05:58:19.088Z,864
2023-04-23T05:59:35.245Z,824
2023-04-23T06:00:51.379Z,832
2023-04-23T06:02:07.511Z,836
2023-04-23T06:03:23.645Z,868
2023-04-23T06:04:39.895Z,924
2023-04-23T06:05:56.033Z,1012
2023-04-23T06:07:12.177Z,1096
2023-04-23T06:08:28.316Z,1188
2023-04-23T06:09:44.438Z,1272
2023-04-23T06:11:00.583Z,1364
2023-04-23T06:12:16.719Z,1460
2023-04-23T06:13:32.859Z,1536
2023-04-23T06:14:48.987Z,1572
2023-04-23T06:16:05.130Z,1632
2023-04-23T06:17:21.253Z,1672
2023-04-23T06:18:37.395Z,1752
2023-04-23T06:19:53.541Z,1920
2023-04-23T06:21:09.659Z,2068
2023-04-23T06:22:25.799Z,2248
2023-04-23T06:23:41.938Z,2292
2023-04-23T06:24:58.078Z,2168
2023-04-23T06:26:14.223Z,2152
2023-04-23T06:27:30.351Z,2132
2023-04-23T06:28:46.487Z,2048
2023-04-23T06:30:02.610Z,1832
2023-04-23T06:31:18.766Z,1832
2023-04-23T06:32:34.000Z,1656
2023-04-23T06:33:51.029Z,1572
2023-04-23T06:35:07.158Z,1736
2023-04-23T06:36:23.288Z,2072
2023-04-23T06:37:39.434Z,1904
2023-04-23T06:38:55.577Z,1868
2023-04-23T06:40:11.702Z,1620
2023-04-23T06:41:27.838Z,1820
2023-04-23T06:42:43.977Z,1836
2023-04-23T06:44:00.133Z,1604
2023-04-23T06:45:16.261Z,1604
2023-04-23T06:46:32.380Z,1812
2023-04-23T06:47:48.528Z,1760
2023-04-23T06:49:04.658Z,1824
2023-04-23T06:50:20.807Z,1704
2023-04-23T06:51:36.997Z,1900
2023-04-23T06:52:52.197Z,2196
2023-04-23T06:54:08.339Z,2024
2023-04-23T06:55:24.475Z,2036
2023-04-23T06:56:40.622Z,1776
2023-04-23T06:57:56.752Z,1844
2023-04-23T06:59:12.884Z,2252
2023-04-23T07:00:29.007Z,2292
2023-04-23T07:01:45.157Z,1840
2023-04-23T07:03:01.299Z,2312
2023-04-23T07:04:17.422Z,2320
2023-04-23T07:05:33.560Z,2376
2023-04-23T07:06:49.692Z,2248
2023-04-23T07:08:05.838Z,2140
2023-04-23T07:09:21.977Z,2060
2023-04-23T07:10:38.113Z,2024
2023-04-23T07:11:54.251Z,2356
2023-04-23T07:13:10.375Z,2428
2023-04-23T07:14:26.533Z,2328
2023-04-23T07:15:42.652Z,1932
2023-04-23T07:16:58.786Z,2352
2023-04-23T07:18:14.920Z,2524
2023-04-23T07:19:31.063Z,2724
2023-04-23T07:20:47.198Z,2916
2023-04-23T07:22:03.338Z,2856
2023-04-23T07:23:19.463Z,2664
2023-04-23T07:24:35.672Z,2804
2023-04-23T07:25:50.865Z,3004
2023-04-23T07:27:07.005Z,2884
2023-04-23T07:28:23.146Z,2920
2023-04-23T07:29:39.282Z,2868
2023-04-23T07:30:55.415Z,2816
2023-04-23T07:32:11.552Z,2796
2023-04-23T07:33:27.685Z,2948
2023-04-23T07:34:43.817Z,2868
2023-04-23T07:35:59.946Z,2700
2023-04-23T07:37:16.087Z,2532
2023-04-23T07:38:32.226Z,2424
2023-04-23T07:39:48.367Z,2304
2023-04-23T07:41:04.503Z,2304
2023-04-23T07:42:20.632Z,2244
2023-04-23T07:43:36.769Z,2252
2023-04-23T07:44:52.910Z,2384
2023-04-23T07:46:09.051Z,2512
2023-04-23T07:47:25.176Z,2744
2023-04-23T07:48:41.318Z,2788
2023-04-23T07:49:57.451Z,2992
2023-04-23T07:51:13.599Z,2664
2023-04-23T07:52:29.726Z,2972
2023-04-23T07:53:45.864Z,3284
2023-04-23T07:55:01.991Z,2708
2023-04-23T07:56:18.132Z,3468
2023-04-23T07:57:34.338Z,3948
2023-04-23T07:58:49.570Z,4320
2023-04-23T08:00:04.784Z,5228
2023-04-23T08:01:20.930Z,7336
2023-04-23T08:02:37.065Z,8740
2023-04-23T08:03:53.182Z,8516
2023-04-23T08:05:09.317Z,7472
2023-04-23T08:06:25.586Z,6452
2023-04-23T08:07:41.721Z,5604
2023-04-23T08:08:57.866Z,5164
2023-04-23T08:10:13.986Z,4888
2023-04-23T08:11:30.122Z,5144
2023-04-23T08:12:46.262Z,5772
2023-04-23T08:14:02.407Z,7436
2023-04-23T08:15:18.542Z,9788
2023-04-23T08:16:34.673Z,11456
2023-04-23T08:17:50.802Z,11420
2023-04-23T08:19:06.941Z,10800
2023-04-23T08:20:23.087Z,9572
2023-04-23T08:21:39.213Z,7788
2023-04-23T08:22:55.359Z,8536
2023-04-23T08:25:27.612Z,9700
2023-04-23T08:26:43.765Z,9124
2023-04-23T08:27:59.906Z,8712
2023-04-23T08:29:16.041Z,10780
2023-04-23T08:30:32.168Z,20832
2023-04-23T08:31:48.306Z,43520
2023-04-23T08:33:04.460Z,22944
2023-04-23T08:34:20.577Z,33184
2023-04-23T08:35:36.720Z,24832
2023-04-23T08:36:52.859Z,64832
2023-04-23T08:38:08.995Z,60992
2023-04-23T08:39:25.132Z,67360
2023-04-23T08:40:41.274Z,12000
2023-04-23T08:41:57.399Z,38368
2023-04-23T08:43:13.535Z,38688
2023-04-23T08:44:29.666Z,45152
2023-04-23T08:45:45.812Z,50464
2023-04-23T08:47:01.953Z,58240
2023-04-23T08:48:18.075Z,61568
2023-04-23T08:49:34.225Z,64256
2023-04-23T08:50:50.345Z,64256
2023-04-23T08:52:06.490Z,69056
2023-04-23T08:53:22.685Z,39072
2023-04-23T08:54:37.908Z,44256
2023-04-23T08:55:53.059Z,68960
2023-04-23T08:57:09.181Z,61824
2023-04-23T08:58:25.319Z,66336
2023-04-23T08:59:41.446Z,68000
2023-04-23T09:00:57.588Z,21952
2023-04-23T09:02:13.743Z,9728
2023-04-23T09:03:29.863Z,63552
2023-04-23T09:04:46.004Z,56192
2023-04-23T09:06:02.000Z,65536
2023-04-23T09:07:18.265Z,66208
2023-04-23T09:08:34.422Z,64064
2023-04-23T09:09:50.546Z,67360
2023-04-23T09:11:06.678Z,54624
2023-04-23T09:12:22.813Z,18532
2023-04-23T09:13:38.962Z,75360
2023-04-23T09:14:55.109Z,76000
2023-04-23T09:16:11.236Z,79776
2023-04-23T09:17:27.360Z,90432
2023-04-23T09:18:43.509Z,101216
2023-04-23T09:19:59.645Z,105568
2023-04-23T09:21:15.781Z,93440
2023-04-23T09:22:31.923Z,70048
2023-04-23T09:23:48.048Z,46464
2023-04-23T09:25:04.189Z,28256
2023-04-23T09:26:20.320Z,23424
2023-04-23T09:27:36.480Z,23328
2023-04-23T09:28:52.614Z,22176
2023-04-23T09:30:08.736Z,22400
2023-04-23T09:31:24.873Z,22496
2023-04-23T09:32:41.016Z,22048
2023-04-23T09:33:57.159Z,21920
2023-04-23T09:35:13.281Z,21984
2023-04-23T09:36:29.427Z,21952
2023-04-23T09:37:45.557Z,23360
2023-04-23T09:39:01.693Z,23712
2023-04-23T09:40:17.834Z,23520
2023-04-23T09:41:33.978Z,23776
2023-04-23T09:42:50.168Z,24512
2023-04-23T09:44:05.383Z,24576
2023-04-23T09:45:21.516Z,24704
2023-04-23T09:46:37.654Z,24896
2023-04-23T09:47:53.790Z,25728
2023-04-23T09:49:09.934Z,27360
2023-04-23T09:50:26.064Z,24352
2023-04-23T09:51:42.204Z,9248
2023-04-23T09:52:58.340Z,7452
2023-04-23T09:54:14.485Z,7984
2023-04-23T09:55:30.610Z,6196
2023-04-23T09:56:46.746Z,6976
2023-04-23T09:58:02.895Z,30464
2023-04-23T09:59:19.040Z,33312
2023-04-23T10:00:35.162Z,35904
2023-04-23T10:01:51.417Z,36864
2023-04-23T10:03:07.558Z,36000
2023-04-23T10:04:23.709Z,34656
2023-04-23T10:05:39.853Z,36064
2023-04-23T10:06:55.970Z,36512
2023-04-23T10:08:12.114Z,36480
2023-04-23T10:09:28.240Z,35904
2023-04-23T10:10:44.407Z,36832
2023-04-23T10:12:00.673Z,36896
2023-04-23T10:13:16.825Z,36640
2023-04-23T10:14:32.958Z,36672
2023-04-23T10:15:49.090Z,37888
2023-04-23T10:17:05.241Z,38656
2023-04-23T10:18:21.359Z,37376
2023-04-23T10:19:37.508Z,37248
2023-04-23T10:20:53.630Z,38656
2023-04-23T10:22:09.900Z,38368
2023-04-23T10:23:26.048Z,39360
2023-04-23T10:24:42.170Z,40672
2023-04-23T10:25:58.319Z,41600
2023-04-23T10:27:14.455Z,43008
2023-04-23T10:28:30.578Z,41760
2023-04-23T10:29:46.728Z,41440
2023-04-23T10:31:02.862Z,41760
2023-04-23T10:32:19.012Z,41856
2023-04-23T10:33:35.139Z,41984
2023-04-23T10:34:51.284Z,42112
2023-04-23T10:36:07.421Z,41824
2023-04-23T10:37:23.555Z,42528
2023-04-23T10:38:39.690Z,42560
2023-04-23T10:39:55.834Z,41824
2023-04-23T10:41:11.964Z,42880
2023-04-23T10:42:28.122Z,42912
2023-04-23T10:43:44.252Z,43200
2023-04-23T10:45:00.393Z,44160
2023-04-23T10:46:16.525Z,43328
2023-04-23T10:47:32.649Z,42784
2023-04-23T10:48:48.815Z,42368
2023-04-23T10:50:04.943Z,42752
2023-04-23T10:51:21.074Z,43584
2023-04-23T10:52:37.213Z,43808
2023-04-23T10:53:53.354Z,43520
2023-04-23T10:55:09.498Z,43072
2023-04-23T10:56:25.631Z,43840
2023-04-23T10:57:41.768Z,42880
2023-04-23T10:58:57.899Z,42208
2023-04-23T11:00:14.044Z,17144
2023-04-23T11:01:30.183Z,31488
2023-04-23T11:02:46.326Z,42496
2023-04-23T11:04:02.463Z,42848
2023-04-23T11:05:18.593Z,41472
2023-04-23T11:06:34.726Z,44544
2023-04-23T11:07:50.877Z,45696
2023-04-23T11:09:07.077Z,6956
2023-04-23T11:10:22.281Z,13368
2023-04-23T11:11:38.541Z,42176
2023-04-23T11:12:54.680Z,42720
2023-04-23T11:14:10.828Z,43488
2023-04-23T11:15:26.961Z,43456
2023-04-23T11:16:43.088Z,42816
2023-04-23T11:17:59.229Z,41184
2023-04-23T11:19:15.369Z,39968
2023-04-23T11:20:31.517Z,39520
2023-04-23T11:21:47.655Z,38080
2023-04-23T11:23:03.779Z,38624
2023-04-23T11:24:19.925Z,29056
2023-04-23T11:25:36.059Z,40544
2023-04-23T11:26:52.190Z,37216
2023-04-23T11:28:08.333Z,35776
2023-04-23T11:29:24.470Z,22112
2023-04-23T11:30:40.607Z,8008
2023-04-23T11:31:56.761Z,8304
2023-04-23T11:33:12.893Z,9200
2023-04-23T11:34:29.030Z,8588
2023-04-23T11:35:45.162Z,7404
2023-04-23T11:37:01.297Z,5444
2023-04-23T11:38:17.444Z,7812
2023-04-23T11:39:33.578Z,7584
2023-04-23T11:40:49.707Z,6880
2023-04-23T11:42:05.850Z,6384
2023-04-23T11:43:21.984Z,6096
2023-04-23T11:44:38.124Z,5856
2023-04-23T11:45:54.267Z,5824
2023-04-23T11:47:10.394Z,6136
2023-04-23T11:48:26.524Z,6884
2023-04-23T11:49:42.660Z,7472
2023-04-23T11:50:58.815Z,8332
2023-04-23T11:52:14.947Z,7456
2023-04-23T11:53:31.079Z,6344
2023-04-23T11:54:47.212Z,6944
2023-04-23T11:56:03.341Z,8684
2023-04-23T11:57:19.500Z,8024
2023-04-23T11:58:35.683Z,8540
2023-04-23T11:59:50.933Z,6752
2023-04-23T12:01:06.128Z,6664
2023-04-23T12:02:22.262Z,7844
2023-04-23T12:03:38.412Z,6624
2023-04-23T12:04:54.544Z,6468
2023-04-23T12:06:10.661Z,6556
2023-04-23T12:07:26.819Z,6696
2023-04-23T12:08:42.954Z,7100
2023-04-23T12:09:59.090Z,7040
2023-04-23T12:11:15.222Z,6944
2023-04-23T12:12:31.343Z,6960
2023-04-23T12:13:47.506Z,6724
2023-04-23T12:15:03.628Z,6096
2023-04-23T12:16:19.776Z,6064
2023-04-23T12:17:35.893Z,6260
2023-04-23T12:18:52.046Z,6636
2023-04-23T12:20:08.185Z,8164
2023-04-23T12:21:24.315Z,8500
2023-04-23T12:22:40.449Z,7280
2023-04-23T12:23:56.587Z,5652
2023-04-23T12:25:12.721Z,3300
2023-04-23T12:26:28.862Z,2624
2023-04-23T12:27:45.004Z,2816
2023-04-23T12:29:01.141Z,3668
2023-04-23T12:30:17.260Z,4516
2023-04-23T12:31:33.403Z,4844
2023-04-23T12:32:49.621Z,5832
2023-04-23T12:34:04.849Z,6856
2023-04-23T12:35:20.057Z,6344
2023-04-23T12:36:36.204Z,5264
2023-04-23T12:37:52.339Z,5132
2023-04-23T12:39:08.476Z,5272
2023-04-23T12:41:40.728Z,7892
2023-04-23T12:42:56.886Z,6704
2023-04-23T12:44:13.008Z,7044
2023-04-23T12:45:29.150Z,6772
2023-04-23T12:46:45.281Z,6696
2023-04-23T12:48:01.426Z,6092
2023-04-23T12:49:17.564Z,4960
2023-04-23T12:50:33.694Z,4580
2023-04-23T12:51:49.825Z,4600
2023-04-23T12:53:05.000Z,4164
2023-04-23T12:54:22.091Z,4004
2023-04-23T12:55:38.240Z,4324
2023-04-23T12:56:54.372Z,4472
2023-04-23T12:58:10.522Z,4652
2023-04-23T12:59:26.655Z,4544
2023-04-23T13:00:42.778Z,4388
2023-04-23T13:01:58.922Z,4116
2023-04-23T13:03:15.055Z,3780
2023-04-23T13:04:31.197Z,3356
2023-04-23T13:05:47.321Z,3128
2023-04-23T13:07:03.523Z,2856
2023-04-23T13:08:18.761Z,2692
2023-04-23T13:09:33.975Z,2368
2023-04-23T13:10:49.127Z,2204
2023-04-23T13:12:05.254Z,2024
2023-04-23T13:13:21.400Z,2040
2023-04-23T13:14:37.527Z,1872
2023-04-23T13:15:53.661Z,2044
2023-04-23T13:17:09.813Z,2608
2023-04-23T13:18:25.948Z,2940
2023-04-23T13:19:42.083Z,2800
2023-04-23T13:20:58.210Z,2416
2023-04-23T13:22:14.348Z,2296
2023-04-23T13:23:30.481Z,2468
2023-04-23T13:24:46.618Z,2392
2023-04-23T13:26:02.746Z,2280
2023-04-23T13:27:18.891Z,2032
2023-04-23T13:28:35.031Z,1848
2023-04-23T13:29:51.171Z,1876
2023-04-23T13:31:07.298Z,1912
2023-04-23T13:32:23.436Z,2168
2023-04-23T13:33:39.569Z,2380
2023-04-23T13:34:55.697Z,2652
2023-04-23T13:36:11.848Z,2712
2023-04-23T13:37:27.990Z,2556
2023-04-23T13:38:44.125Z,2412
2023-04-23T13:40:00.252Z,2344
2023-04-23T13:41:16.532Z,2404
2023-04-23T13:42:32.665Z,2652
2023-04-23T13:43:48.804Z,2876
2023-04-23T13:45:04.944Z,3240
2023-04-23T13:46:21.084Z,3580
2023-04-23T13:47:37.200Z,3732
2023-04-23T13:48:53.352Z,3520
2023-04-23T13:50:09.490Z,3800
2023-04-23T13:51:25.628Z,3892
2023-04-23T13:52:41.749Z,3904
2023-04-23T13:53:57.887Z,3740
2023-04-23T13:55:14.030Z,3800
2023-04-23T13:56:30.164Z,3776
2023-04-23T13:57:46.300Z,3724
2023-04-23T13:59:02.445Z,3828
2023-04-23T14:00:18.558Z,3992
2023-04-23T14:01:34.707Z,4132
2023-04-23T14:02:50.840Z,4024
2023-04-23T14:04:06.978Z,4028
2023-04-23T14:05:23.118Z,3832
2023-04-23T14:06:39.260Z,3408
2023-04-23T14:07:55.391Z,3116
2023-04-23T14:09:11.530Z,3096
2023-04-23T14:10:27.659Z,3312
2023-04-23T14:11:43.795Z,3464
2023-04-23T14:12:59.984Z,3604
2023-04-23T14:14:15.231Z,4004
2023-04-23T14:15:30.441Z,4076
2023-04-23T14:16:46.567Z,3940
2023-04-23T14:18:02.728Z,3744
2023-04-23T14:19:18.846Z,3452
2023-04-23T14:20:34.995Z,3140
2023-04-23T14:21:51.113Z,3040
2023-04-23T14:23:07.250Z,2752
2023-04-23T14:24:23.402Z,2656
2023-04-23T14:25:39.535Z,2648
2023-04-23T14:26:55.675Z,2612
2023-04-23T14:28:11.809Z,2688
2023-04-23T14:29:27.932Z,2796
2023-04-23T14:30:44.079Z,2896
2023-04-23T14:32:00.220Z,2964
2023-04-23T14:33:16.345Z,2952
2023-04-23T14:34:32.495Z,3012
2023-04-23T14:35:48.627Z,3112
2023-04-23T14:37:04.766Z,3208
2023-04-23T14:38:20.906Z,3308
2023-04-23T14:39:37.035Z,3340
2023-04-23T14:40:53.163Z,3404
2023-04-23T14:42:09.310Z,3532
2023-04-23T14:43:25.452Z,3608
2023-04-23T14:44:41.591Z,3644
2023-04-23T14:45:57.725Z,3660
2023-04-23T14:47:13.904Z,3712
2023-04-23T14:48:29.136Z,3836
2023-04-23T14:49:44.356Z,4020
2023-04-23T14:50:59.497Z,4108
2023-04-23T14:52:15.650Z,3900
2023-04-23T14:53:31.791Z,3464
2023-04-23T14:54:47.924Z,3052
2023-04-23T14:56:04.044Z,2676
2023-04-23T14:57:20.195Z,2436
2023-04-23T14:58:36.324Z,2480
2023-04-23T14:59:52.467Z,2528
2023-04-23T15:01:08.600Z,2624
2023-04-23T15:02:24.733Z,2664
2023-04-23T15:03:40.856Z,2668
2023-04-23T15:04:57.004Z,2640
2023-04-23T15:06:13.153Z,2584
2023-04-23T15:07:29.287Z,2560
2023-04-23T15:08:45.410Z,2580
2023-04-23T15:10:01.548Z,2536
2023-04-23T15:11:17.703Z,2512
2023-04-23T15:12:33.832Z,2536
2023-04-23T15:13:49.955Z,2676
2023-04-23T15:15:06.087Z,2840
2023-04-23T15:16:22.237Z,2968
2023-04-23T15:17:38.383Z,3132
2023-04-23T15:18:54.509Z,3224
2023-04-23T15:20:10.643Z,3284
2023-04-23T15:21:26.783Z,3288
2023-04-23T15:22:42.901Z,3192
2023-04-23T15:23:59.051Z,2960
2023-04-23T15:25:15.189Z,2608
2023-04-23T15:26:31.317Z,2236
2023-04-23T15:27:47.466Z,1860
2023-04-23T15:29:03.581Z,1612
2023-04-23T15:30:19.728Z,1596
2023-04-23T15:31:35.870Z,1672
2023-04-23T15:32:52.013Z,1708
2023-04-23T15:34:08.147Z,1672
2023-04-23T15:35:24.265Z,1584
2023-04-23T15:36:40.427Z,1484
2023-04-23T15:37:56.612Z,1440
2023-04-23T15:39:11.844Z,1468
2023-04-23T15:40:27.050Z,1604
2023-04-23T15:41:43.199Z,1784
2023-04-23T15:42:59.326Z,1896
2023-04-23T15:44:15.456Z,1956
2023-04-23T15:45:31.600Z,2024
2023-04-23T15:46:47.730Z,2216
2023-04-23T15:48:03.871Z,2540
2023-04-23T15:49:19.997Z,2756
2023-04-23T15:50:36.137Z,2660
2023-04-23T15:51:52.271Z,2428
2023-04-23T15:53:08.425Z,2316
2023-04-23T15:54:24.544Z,2164
2023-04-23T15:55:40.695Z,1936
2023-04-23T15:56:56.813Z,1816
2023-04-23T15:58:12.951Z,1752
2023-04-23T15:59:29.106Z,1592
2023-04-23T16:00:45.226Z,1396
2023-04-23T16:02:01.372Z,1244
2023-04-23T16:03:17.631Z,1200
2023-04-23T16:04:33.758Z,1188
2023-04-23T16:05:49.898Z,1092
2023-04-23T16:07:06.044Z,968
2023-04-23T16:08:22.170Z,816
2023-04-23T16:09:38.300Z,712
2023-04-23T16:10:54.427Z,648
2023-04-23T16:12:10.581Z,620
2023-04-23T16:13:26.726Z,632
2023-04-23T16:14:42.846Z,640
2023-04-23T16:15:58.977Z,604
2023-04-23T16:17:15.111Z,632
2023-04-23T16:18:31.270Z,664
2023-04-23T16:19:47.399Z,644
2023-04-23T16:21:03.533Z,688
2023-04-23T16:22:19.665Z,780
2023-04-23T16:23:35.799Z,860
2023-04-23T16:24:51.951Z,944
2023-04-23T16:26:08.078Z,972
2023-04-23T16:27:24.204Z,892
2023-04-23T16:28:40.336Z,764
2023-04-23T16:29:56.483Z,668
2023-04-23T16:31:12.623Z,652
2023-04-23T16:32:28.756Z,724
2023-04-23T16:33:44.883Z,872
2023-04-23T16:35:01.026Z,856
2023-04-23T16:36:17.147Z,736
2023-04-23T16:37:33.297Z,640
2023-04-23T16:38:49.431Z,620
2023-04-23T16:40:05.561Z,636
2023-04-23T16:41:21.698Z,616
2023-04-23T16:42:37.828Z,536
2023-04-23T16:43:53.980Z,444
2023-04-23T16:45:10.112Z,404
2023-04-23T16:46:26.259Z,368
2023-04-23T16:47:42.385Z,328
2023-04-23T16:48:58.526Z,312
2023-04-23T16:50:14.726Z,296
2023-04-23T16:51:29.974Z,280
2023-04-23T16:52:45.168Z,296
2023-04-23T16:54:01.324Z,328
2023-04-23T16:55:17.451Z,348
2023-04-23T16:56:33.580Z,340
2023-04-23T16:57:49.724Z,324
2023-04-23T16:59:05.845Z,316
2023-04-23T17:00:21.993Z,296
2023-04-23T17:01:38.127Z,252
2023-04-23T17:02:54.276Z,228
2023-04-23T17:04:10.408Z,228
2023-04-23T17:05:26.542Z,232
2023-04-23T17:06:42.673Z,256
2023-04-23T17:07:58.814Z,284
2023-04-23T17:09:14.946Z,308
2023-04-23T17:10:31.086Z,308
2023-04-23T17:11:47.206Z,300
2023-04-23T17:13:03.364Z,300
2023-04-23T17:14:19.488Z,304
2023-04-23T17:15:35.625Z,280
2023-04-23T17:16:51.760Z,264
2023-04-23T17:18:07.888Z,268
2023-04-23T17:19:24.054Z,308
2023-04-23T17:20:40.185Z,340
2023-04-23T17:21:56.310Z,332
2023-04-23T17:23:12.447Z,360
2023-04-23T17:24:28.641Z,396
2023-04-23T17:25:43.906Z,392
2023-04-23T17:26:59.098Z,416